Terminal Aerodrome Forecast
Issued by NWS Medford, OR

Home | Current Version | Previous Version | Text Only | Print | Product List | Glossary On
Versions: 1 2 3 4 5 6 7 8 9 10 11 12 13 14 15 16 17 18 19 20 21 22 23 24 25 26 27 28
000
FTUS46 KMFR 161140
TAFMFR
TAF
KMFR 161140Z 1612/1712 VRB03KT 4SM BR FEW002 SCT040
     FM161300 00000KT 2SM BR SCT002 BKN035
     FM161700 VRB03KT 4SM BR SCT005 BKN035 BKN100
     FM161900 VRB03KT P6SM SCT035 BKN080
     FM171000 00000KT 3SM BR BKN002 BKN060=

USA.gov is the U.S. government's official web portal to all federal, state and local government web resources and services.